createdAt,value
2023-05-24T00:00:12.730Z,9.56
2023-05-24T00:02:42.150Z,9.97
2023-05-24T00:05:09.970Z,9.96
2023-05-24T00:07:37.552Z,10.16
2023-05-24T00:10:05.624Z,10.02
2023-05-24T00:12:32.890Z,10.03
2023-05-24T00:14:59.764Z,10.02
2023-05-24T00:17:26.511Z,9.79
2023-05-24T00:19:53.346Z,9.56
2023-05-24T00:22:21.084Z,9.60
2023-05-24T00:24:48.385Z,9.83
2023-05-24T00:27:15.531Z,9.72
2023-05-24T00:29:42.059Z,9.56
2023-05-24T00:32:08.718Z,9.36
2023-05-24T00:34:35.629Z,9.24
2023-05-24T00:37:02.085Z,9.10
2023-05-24T00:39:28.520Z,9.06
2023-05-24T00:41:54.964Z,8.95
2023-05-24T00:44:21.409Z,8.87
2023-05-24T00:46:48.154Z,8.84
2023-05-24T00:49:14.623Z,8.80
2023-05-24T00:51:41.095Z,8.84
2023-05-24T00:54:07.851Z,8.84
2023-05-24T00:56:34.541Z,8.85
2023-05-24T00:59:01.631Z,8.81
2023-05-24T01:01:30.981Z,8.68
2023-05-24T01:03:59.436Z,8.67
2023-05-24T01:06:27.177Z,8.57
2023-05-24T01:09:03.087Z,8.63
2023-05-24T01:11:40.041Z,8.73
2023-05-24T01:14:14.471Z,8.65
2023-05-24T01:16:52.861Z,8.80
2023-05-24T01:19:43.293Z,8.57
2023-05-24T01:22:36.375Z,8.58
2023-05-24T01:25:27.934Z,8.58
2023-05-24T01:27:54.854Z,8.32
2023-05-24T01:30:21.327Z,8.39
2023-05-24T01:32:48.109Z,8.23
2023-05-24T01:35:14.619Z,8.23
2023-05-24T01:37:41.086Z,8.22
2023-05-24T01:40:08.463Z,8.26
2023-05-24T01:42:49.190Z,8.22
2023-05-24T01:45:30.850Z,7.99
2023-05-24T01:48:00.669Z,7.99
2023-05-24T01:50:39.108Z,8.08
2023-05-24T01:53:09.756Z,8.22
2023-05-24T01:55:37.483Z,8.13
2023-05-24T01:58:05.473Z,8.20
2023-05-24T02:00:33.051Z,8.17
2023-05-24T02:02:59.735Z,8.12
2023-05-24T02:05:26.232Z,8.03
2023-05-24T02:07:53.180Z,8.17
2023-05-24T02:10:19.718Z,7.96
2023-05-24T02:12:46.204Z,8.01
2023-05-24T02:15:14.806Z,7.88
2023-05-24T02:17:42.873Z,7.69
2023-05-24T02:20:10.798Z,7.78
2023-05-24T02:22:37.362Z,7.68
2023-05-24T02:25:04.043Z,7.76
2023-05-24T02:27:30.691Z,7.74
2023-05-24T02:29:57.434Z,7.68
2023-05-24T02:32:24.052Z,7.93
2023-05-24T02:34:50.566Z,8.06
2023-05-24T02:37:17.037Z,7.93
2023-05-24T02:39:43.553Z,7.99
2023-05-24T02:42:11.356Z,8.49
2023-05-24T02:44:37.865Z,8.29
2023-05-24T02:47:04.558Z,8.22
2023-05-24T02:49:31.154Z,8.17
2023-05-24T02:51:57.592Z,8.03
2023-05-24T02:54:24.042Z,7.93
2023-05-24T02:56:50.743Z,7.69
2023-05-24T02:59:17.576Z,7.72
2023-05-24T03:01:44.296Z,7.93
2023-05-24T03:04:10.990Z,7.79
2023-05-24T03:06:37.979Z,7.90
2023-05-24T03:09:04.577Z,8.00
2023-05-24T03:11:31.035Z,8.06
2023-05-24T03:13:57.477Z,8.11
2023-05-24T03:16:25.361Z,8.17
2023-05-24T03:18:55.160Z,8.01
2023-05-24T03:21:23.376Z,8.11
2023-05-24T03:23:50.042Z,7.79
2023-05-24T03:26:18.627Z,7.58
2023-05-24T03:28:45.368Z,7.56
2023-05-24T03:31:12.450Z,7.74
2023-05-24T03:33:38.967Z,7.50
2023-05-24T03:36:06.709Z,7.49
2023-05-24T03:38:33.750Z,7.26
2023-05-24T03:41:00.547Z,7.11
2023-05-24T03:43:27.055Z,7.33
2023-05-24T03:45:53.607Z,7.47
2023-05-24T03:48:20.995Z,7.74
2023-05-24T03:50:47.832Z,7.67
2023-05-24T03:53:14.326Z,7.77
2023-05-24T03:55:40.757Z,8.19
2023-05-24T03:58:07.193Z,7.78
2023-05-24T04:00:33.660Z,7.79
2023-05-24T04:03:01.665Z,7.83
2023-05-24T04:05:29.839Z,7.87
2023-05-24T04:07:56.570Z,7.60
2023-05-24T04:10:23.096Z,7.61
2023-05-24T04:12:49.593Z,7.55
2023-05-24T04:15:16.103Z,7.48
2023-05-24T04:17:43.835Z,7.43
2023-05-24T04:20:11.440Z,7.62
2023-05-24T04:22:38.150Z,7.55
2023-05-24T04:25:05.569Z,7.54
2023-05-24T04:27:32.435Z,7.60
2023-05-24T04:29:59.141Z,7.82
2023-05-24T04:32:26.334Z,7.84
2023-05-24T04:34:53.958Z,7.93
2023-05-24T04:37:20.718Z,7.97
2023-05-24T04:39:47.317Z,7.95
2023-05-24T04:42:13.933Z,8.00
2023-05-24T04:44:40.974Z,7.93
2023-05-24T04:47:08.819Z,8.11
2023-05-24T04:49:35.305Z,8.15
2023-05-24T04:52:01.787Z,8.13
2023-05-24T04:54:28.262Z,8.16
2023-05-24T04:56:54.733Z,8.23
2023-05-24T04:59:21.175Z,8.25
2023-05-24T05:01:48.269Z,8.30
2023-05-24T05:04:14.872Z,8.27
2023-05-24T05:06:43.336Z,8.45
2023-05-24T05:09:10.468Z,8.52
2023-05-24T05:11:37.096Z,8.71
2023-05-24T05:14:03.743Z,8.70
2023-05-24T05:16:30.503Z,8.64
2023-05-24T05:18:56.999Z,8.55
2023-05-24T05:21:23.463Z,8.66
2023-05-24T05:23:49.994Z,8.77
2023-05-24T05:26:16.456Z,8.74
2023-05-24T05:28:42.951Z,8.81
2023-05-24T05:31:09.418Z,9.15
2023-05-24T05:33:36.052Z,9.21
2023-05-24T05:36:02.833Z,9.72
2023-05-24T05:38:29.300Z,9.66
2023-05-24T05:40:55.827Z,9.97
2023-05-24T05:43:22.255Z,9.85
2023-05-24T05:45:48.721Z,9.78
2023-05-24T05:48:15.159Z,10.08
2023-05-24T05:50:41.805Z,9.80
2023-05-24T05:53:08.513Z,9.82
2023-05-24T05:55:35.009Z,10.33
2023-05-24T05:58:01.581Z,10.45
2023-05-24T06:00:28.098Z,9.91
2023-05-24T06:02:54.696Z,10.15
2023-05-24T06:05:21.429Z,10.34
2023-05-24T06:07:47.880Z,9.94
2023-05-24T06:10:14.354Z,10.40
2023-05-24T06:12:40.797Z,10.25
2023-05-24T06:15:08.118Z,10.61
2023-05-24T06:17:35.513Z,10.65
2023-05-24T06:20:09.574Z,10.68
2023-05-24T06:22:36.619Z,10.71
2023-05-24T06:25:04.480Z,10.53
2023-05-24T06:27:30.971Z,10.93
2023-05-24T06:29:57.448Z,10.70
2023-05-24T06:32:23.933Z,10.74
2023-05-24T06:34:51.606Z,11.03
2023-05-24T06:37:18.132Z,11.09
2023-05-24T06:39:44.672Z,10.95
2023-05-24T06:42:11.163Z,11.00
2023-05-24T06:44:37.659Z,11.20
2023-05-24T06:47:05.721Z,10.99
2023-05-24T06:49:32.450Z,11.33
2023-05-24T06:51:58.961Z,11.33
2023-05-24T06:54:25.666Z,11.52
2023-05-24T06:56:52.159Z,11.38
2023-05-24T06:59:18.619Z,11.21
2023-05-24T07:01:45.195Z,11.04
2023-05-24T07:04:11.787Z,11.34
2023-05-24T07:06:39.323Z,11.53
2023-05-24T07:09:05.849Z,11.50
2023-05-24T07:11:32.504Z,11.49
2023-05-24T07:13:58.974Z,11.80
2023-05-24T07:16:25.593Z,11.86
2023-05-24T07:18:52.070Z,11.67
2023-05-24T07:21:18.534Z,11.77
2023-05-24T07:23:44.976Z,11.32
2023-05-24T07:26:12.774Z,11.71
2023-05-24T07:28:40.475Z,11.72
2023-05-24T07:31:09.875Z,11.80
2023-05-24T07:33:37.740Z,11.70
2023-05-24T07:36:05.987Z,11.62
2023-05-24T07:38:32.934Z,11.48
2023-05-24T07:41:00.857Z,11.44
2023-05-24T07:43:27.512Z,11.74
2023-05-24T07:45:54.156Z,11.57
2023-05-24T07:48:21.512Z,11.26
2023-05-24T07:50:49.853Z,11.33
2023-05-24T07:53:16.424Z,11.60
2023-05-24T07:55:44.566Z,11.73
2023-05-24T07:58:11.495Z,11.79
2023-05-24T08:00:38.178Z,11.73
2023-05-24T08:03:07.545Z,11.67
2023-05-24T08:05:34.115Z,12.08
2023-05-24T08:08:00.591Z,12.17
2023-05-24T08:10:27.537Z,12.26
2023-05-24T08:12:56.060Z,12.66
2023-05-24T08:15:22.663Z,12.78
2023-05-24T08:17:49.297Z,12.62
2023-05-24T08:20:16.744Z,12.78
2023-05-24T08:22:43.721Z,13.05
2023-05-24T08:25:11.544Z,12.78
2023-05-24T08:27:38.290Z,12.28
2023-05-24T08:30:05.852Z,12.60
2023-05-24T08:32:32.766Z,12.62
2023-05-24T08:35:14.841Z,12.63
2023-05-24T08:37:46.058Z,12.65
2023-05-24T08:40:12.794Z,12.39
2023-05-24T08:42:39.788Z,12.00
2023-05-24T08:45:11.550Z,12.00
2023-05-24T08:47:38.458Z,12.40
2023-05-24T08:50:06.249Z,12.69
2023-05-24T08:52:32.843Z,13.01
2023-05-24T08:54:59.992Z,12.95
2023-05-24T08:57:27.455Z,12.56
2023-05-24T08:59:57.112Z,13.00
2023-05-24T09:02:24.171Z,12.94
2023-05-24T09:04:52.535Z,13.26
2023-05-24T09:07:23.517Z,13.30
2023-05-24T09:10:02.188Z,13.93
2023-05-24T09:12:37.360Z,13.91
2023-05-24T09:15:06.126Z,13.91
2023-05-24T09:17:33.900Z,13.70
2023-05-24T09:20:00.844Z,13.78
2023-05-24T09:22:28.413Z,13.52
2023-05-24T09:24:59.703Z,13.37
2023-05-24T09:27:26.509Z,13.17
2023-05-24T09:29:53.683Z,13.28
2023-05-24T09:32:24.074Z,13.62
2023-05-24T09:34:54.536Z,13.32
2023-05-24T09:37:28.848Z,13.13
2023-05-24T09:39:58.361Z,13.41
2023-05-24T09:42:27.142Z,14.02
2023-05-24T09:45:12.276Z,14.26
2023-05-24T09:47:40.997Z,14.33
2023-05-24T09:50:19.695Z,14.22
2023-05-24T09:52:46.174Z,13.92
2023-05-24T09:55:20.226Z,13.86
2023-05-24T09:57:53.144Z,13.84
2023-05-24T10:00:25.254Z,13.37
2023-05-24T10:03:02.992Z,13.67
2023-05-24T10:05:30.217Z,13.93
2023-05-24T10:08:00.990Z,13.53
2023-05-24T10:10:31.941Z,13.73
2023-05-24T10:13:02.183Z,13.53
2023-05-24T10:15:29.358Z,13.50
2023-05-24T10:17:56.606Z,13.50
2023-05-24T10:20:26.787Z,13.48
2023-05-24T10:23:03.259Z,13.43
2023-05-24T10:25:30.032Z,13.46
2023-05-24T10:28:04.464Z,13.44
2023-05-24T10:30:37.601Z,13.21
2023-05-24T10:33:07.905Z,13.40
2023-05-24T10:35:37.994Z,13.40
2023-05-24T10:38:08.009Z,13.55
2023-05-24T10:40:34.672Z,13.74
2023-05-24T10:43:04.976Z,13.77
2023-05-24T10:45:33.513Z,13.84
2023-05-24T10:48:29.202Z,14.22
2023-05-24T10:50:56.156Z,14.52
2023-05-24T10:53:23.622Z,14.51
2023-05-24T10:56:04.147Z,14.69
2023-05-24T10:58:33.574Z,14.60
2023-05-24T11:01:00.036Z,14.57
2023-05-24T11:03:33.026Z,14.64
2023-05-24T11:05:59.917Z,14.16
2023-05-24T11:08:33.107Z,13.86
2023-05-24T11:11:23.199Z,13.62
2023-05-24T11:13:56.009Z,13.52
2023-05-24T11:16:40.145Z,13.49
2023-05-24T11:19:16.625Z,13.19
2023-05-24T11:21:48.621Z,13.15
2023-05-24T11:24:17.628Z,13.08
2023-05-24T11:26:44.768Z,13.09
2023-05-24T11:29:17.449Z,13.12
2023-05-24T11:31:54.566Z,13.17
2023-05-24T11:34:21.586Z,13.19
2023-05-24T11:36:50.138Z,13.20
2023-05-24T11:39:16.814Z,13.14
2023-05-24T11:41:43.648Z,13.06
2023-05-24T11:44:11.561Z,13.28
2023-05-24T11:46:43.183Z,13.33
2023-05-24T11:49:13.448Z,13.43
2023-05-24T11:51:40.293Z,13.45
2023-05-24T11:54:06.756Z,13.44
2023-05-24T11:56:34.162Z,13.54
2023-05-24T11:59:09.224Z,13.64
2023-05-24T12:01:35.712Z,13.61
2023-05-24T12:04:02.292Z,13.80
2023-05-24T12:06:42.772Z,13.98
2023-05-24T12:09:10.799Z,14.00
2023-05-24T12:11:42.153Z,14.16
2023-05-24T12:14:12.956Z,14.13
2023-05-24T12:16:39.870Z,14.28
2023-05-24T12:19:13.989Z,14.32
2023-05-24T12:21:48.051Z,14.35
2023-05-24T12:24:16.235Z,14.47
2023-05-24T12:26:44.612Z,14.47
2023-05-24T12:29:12.189Z,14.65
2023-05-24T12:31:48.007Z,14.80
2023-05-24T12:34:21.022Z,14.97
2023-05-24T12:36:48.087Z,14.87
2023-05-24T12:39:33.928Z,14.95
2023-05-24T12:42:03.732Z,14.62
2023-05-24T12:44:37.560Z,14.75
2023-05-24T12:47:06.730Z,14.98
2023-05-24T12:49:33.741Z,14.93
2023-05-24T12:52:01.831Z,14.71
2023-05-24T12:54:28.794Z,14.45
2023-05-24T12:56:57.255Z,14.50
2023-05-24T12:59:24.539Z,14.36
2023-05-24T13:01:51.919Z,14.25
2023-05-24T13:04:21.014Z,14.22
2023-05-24T13:06:50.701Z,14.31
2023-05-24T13:09:18.970Z,14.34
2023-05-24T13:11:47.028Z,14.25
2023-05-24T13:14:15.336Z,14.41
2023-05-24T13:16:42.085Z,14.46
2023-05-24T13:19:08.566Z,14.65
2023-05-24T13:21:35.619Z,14.77
2023-05-24T13:24:02.114Z,14.91
2023-05-24T13:26:28.858Z,15.02
2023-05-24T13:31:25.425Z,15.49
2023-05-24T13:33:52.055Z,15.24
2023-05-24T13:36:19.054Z,14.95
2023-05-24T13:38:45.581Z,14.88
2023-05-24T13:41:12.482Z,15.47
2023-05-24T13:43:39.045Z,15.40
2023-05-24T13:46:05.571Z,15.35
2023-05-24T13:48:32.282Z,15.21
2023-05-24T13:50:58.871Z,14.88
2023-05-24T13:53:26.231Z,14.97
2023-05-24T13:55:52.679Z,15.35
2023-05-24T13:58:19.368Z,15.43
2023-05-24T14:00:45.885Z,15.40
2023-05-24T14:03:13.096Z,15.50
2023-05-24T14:05:40.909Z,15.41
2023-05-24T14:08:07.584Z,15.50
2023-05-24T14:10:37.323Z,14.85
2023-05-24T14:15:37.880Z,15.02
2023-05-24T14:18:07.813Z,15.12
2023-05-24T14:20:37.723Z,15.05
2023-05-24T14:23:04.640Z,15.09
2023-05-24T14:25:31.904Z,15.03
2023-05-24T14:27:58.996Z,15.27
2023-05-24T14:30:26.574Z,14.68
2023-05-24T14:32:53.081Z,14.91
2023-05-24T14:35:19.595Z,15.09
2023-05-24T14:37:46.049Z,15.11
2023-05-24T14:40:13.148Z,15.21
2023-05-24T14:42:39.624Z,15.38
2023-05-24T14:45:06.507Z,15.91
2023-05-24T14:47:33.076Z,16.41
2023-05-24T14:49:59.616Z,16.77
2023-05-24T14:52:26.204Z,17.14
2023-05-24T14:54:52.691Z,16.97
2023-05-24T14:57:19.153Z,17.13
2023-05-24T14:59:45.810Z,17.12
2023-05-24T15:02:12.506Z,16.90
2023-05-24T15:04:38.986Z,16.62
2023-05-24T15:07:05.633Z,16.69
2023-05-24T15:09:32.261Z,17.05
2023-05-24T15:11:58.797Z,16.96
2023-05-24T15:14:25.498Z,16.59
2023-05-24T15:16:52.003Z,16.81
2023-05-24T15:19:18.484Z,17.09
2023-05-24T15:21:44.954Z,17.09
2023-05-24T15:24:13.116Z,16.29
2023-05-24T15:26:39.653Z,16.29
2023-05-24T15:29:06.586Z,16.37
2023-05-24T15:31:33.639Z,16.41
2023-05-24T15:34:00.170Z,15.90
2023-05-24T15:36:26.650Z,15.88
2023-05-24T15:38:53.591Z,15.68
2023-05-24T15:41:20.208Z,15.68
2023-05-24T15:43:46.707Z,15.51
2023-05-24T15:46:13.201Z,15.71
2023-05-24T15:48:39.648Z,15.69
2023-05-24T15:51:58.223Z,15.63
2023-05-24T15:53:54.065Z,15.28
2023-05-24T15:56:22.014Z,15.38
2023-05-24T15:58:48.470Z,15.53
2023-05-24T16:01:15.079Z,15.76
2023-05-24T16:03:41.583Z,15.96
2023-05-24T16:06:08.149Z,16.11
2023-05-24T16:08:34.638Z,15.77
2023-05-24T16:11:03.543Z,15.90
2023-05-24T16:13:30.258Z,15.86
2023-05-24T16:15:56.709Z,15.97
2023-05-24T16:18:23.625Z,15.88
2023-05-24T16:20:51.090Z,15.76
2023-05-24T16:23:17.914Z,15.93
2023-05-24T16:25:46.129Z,15.83
2023-05-24T16:28:12.737Z,15.55
2023-05-24T16:30:39.247Z,15.54
2023-05-24T16:33:05.878Z,15.53
2023-05-24T16:35:32.462Z,15.67
2023-05-24T16:37:58.915Z,15.86
2023-05-24T16:40:25.514Z,15.94
2023-05-24T16:42:53.612Z,15.89
2023-05-24T16:45:20.276Z,15.93
2023-05-24T16:47:46.789Z,15.99
2023-05-24T16:50:15.952Z,15.98
2023-05-24T16:52:42.876Z,15.83
2023-05-24T16:55:10.623Z,15.93
2023-05-24T16:57:37.543Z,15.83
2023-05-24T17:00:05.234Z,15.77
2023-05-24T17:02:31.831Z,16.07
2023-05-24T17:04:58.368Z,16.14
2023-05-24T17:07:24.897Z,16.34
2023-05-24T17:09:51.735Z,16.34
2023-05-24T17:12:18.713Z,15.87
2023-05-24T17:14:45.197Z,16.20
2023-05-24T17:17:12.042Z,16.18
2023-05-24T17:19:38.589Z,15.93
2023-05-24T17:22:06.028Z,15.88
2023-05-24T17:24:32.481Z,16.13
2023-05-24T17:26:59.215Z,16.06
2023-05-24T17:29:26.656Z,16.04
2023-05-24T17:31:53.151Z,16.34
2023-05-24T17:34:19.636Z,16.29
2023-05-24T17:36:46.080Z,16.34
2023-05-24T17:39:12.548Z,16.06
2023-05-24T17:41:39.062Z,16.07
2023-05-24T17:44:05.561Z,16.08
2023-05-24T17:46:34.346Z,16.12
2023-05-24T17:49:02.761Z,16.12
2023-05-24T17:51:29.233Z,15.87
2023-05-24T17:53:55.844Z,15.70
2023-05-24T17:56:23.259Z,15.12
2023-05-24T17:58:50.532Z,15.46
2023-05-24T18:01:17.409Z,15.50
2023-05-24T18:03:43.999Z,15.41
2023-05-24T18:06:10.975Z,15.53
2023-05-24T18:08:40.888Z,15.51
2023-05-24T18:11:11.302Z,15.47
2023-05-24T18:13:39.012Z,15.39
2023-05-24T18:16:06.556Z,15.40
2023-05-24T18:18:33.206Z,15.36
2023-05-24T18:20:59.750Z,15.30
2023-05-24T18:23:26.267Z,15.32
2023-05-24T18:26:00.787Z,15.35
2023-05-24T18:28:28.813Z,15.12
2023-05-24T18:30:55.327Z,15.05
2023-05-24T18:33:22.035Z,14.82
2023-05-24T18:35:48.590Z,14.93
2023-05-24T18:38:15.042Z,14.84
2023-05-24T18:40:41.528Z,14.92
2023-05-24T18:43:08.029Z,14.89
2023-05-24T18:45:34.634Z,14.87
2023-05-24T18:48:01.280Z,14.79
2023-05-24T18:50:27.972Z,14.88
2023-05-24T18:52:54.448Z,14.89
2023-05-24T18:55:20.913Z,14.74
2023-05-24T18:57:47.836Z,14.80
2023-05-24T19:00:14.473Z,14.61
2023-05-24T19:02:41.096Z,14.57
2023-05-24T19:05:08.319Z,14.43
2023-05-24T19:07:35.698Z,14.49
2023-05-24T19:10:02.586Z,14.30
2023-05-24T19:12:29.146Z,14.26
2023-05-24T19:14:55.708Z,14.19
2023-05-24T19:17:23.984Z,14.19
2023-05-24T19:19:50.729Z,14.04
2023-05-24T19:22:17.346Z,14.03
2023-05-24T19:24:44.062Z,13.79
2023-05-24T19:27:10.538Z,13.50
2023-05-24T19:29:37.218Z,13.52
2023-05-24T19:32:03.919Z,13.44
2023-05-24T19:34:31.963Z,13.45
2023-05-24T19:36:58.504Z,13.23
2023-05-24T19:39:25.235Z,13.29
2023-05-24T19:41:52.491Z,13.21
2023-05-24T19:44:19.167Z,13.19
2023-05-24T19:46:45.674Z,13.12
2023-05-24T19:49:12.286Z,13.12
2023-05-24T19:51:38.878Z,13.13
2023-05-24T19:54:05.982Z,13.12
2023-05-24T19:56:32.578Z,13.23
2023-05-24T19:58:59.024Z,13.16
2023-05-24T20:01:25.718Z,13.12
2023-05-24T20:03:52.360Z,13.11
2023-05-24T20:06:19.208Z,13.09
2023-05-24T20:08:45.752Z,13.06
2023-05-24T20:11:14.160Z,13.34
2023-05-24T20:13:40.843Z,13.23
2023-05-24T20:16:07.425Z,13.12
2023-05-24T20:18:37.112Z,12.95
2023-05-24T20:21:03.690Z,12.95
2023-05-24T20:23:30.848Z,12.93
2023-05-24T20:25:57.625Z,12.95
2023-05-24T20:28:30.815Z,13.05
2023-05-24T20:30:58.630Z,12.76
2023-05-24T20:33:25.120Z,12.84
2023-05-24T20:35:53.107Z,12.77
2023-05-24T20:38:19.865Z,12.73
2023-05-24T20:40:46.532Z,12.57
2023-05-24T20:43:13.108Z,12.71
2023-05-24T20:45:39.681Z,12.63
2023-05-24T20:48:06.506Z,12.61
2023-05-24T20:50:33.041Z,12.51
2023-05-24T20:52:59.567Z,12.30
2023-05-24T20:55:27.005Z,12.36
2023-05-24T20:57:53.827Z,12.17
2023-05-24T21:00:20.355Z,12.13
2023-05-24T21:02:46.963Z,12.09
2023-05-24T21:05:13.554Z,12.05
2023-05-24T21:07:40.115Z,12.17
2023-05-24T21:10:07.631Z,12.21
2023-05-24T21:12:34.138Z,12.06
2023-05-24T21:15:00.640Z,11.98
2023-05-24T21:17:27.230Z,11.94
2023-05-24T21:19:53.740Z,11.73
2023-05-24T21:22:20.290Z,11.66
2023-05-24T21:24:46.754Z,11.83
2023-05-24T21:27:13.274Z,12.12
2023-05-24T21:29:41.648Z,11.78
2023-05-24T21:32:08.105Z,11.81
2023-05-24T21:34:35.737Z,11.98
2023-05-24T21:37:02.637Z,12.00
2023-05-24T21:39:29.343Z,11.83
2023-05-24T21:41:55.881Z,11.75
2023-05-24T21:44:22.359Z,11.91
2023-05-24T21:46:48.913Z,11.73
2023-05-24T21:49:17.209Z,11.43
2023-05-24T21:51:43.700Z,11.36
2023-05-24T21:54:10.159Z,11.67
2023-05-24T21:56:37.227Z,11.61
2023-05-24T21:59:03.688Z,11.69
2023-05-24T22:01:30.339Z,11.37
2023-05-24T22:03:56.948Z,11.32
2023-05-24T22:06:23.675Z,11.46
2023-05-24T22:08:50.131Z,11.18
2023-05-24T22:11:16.552Z,11.12
2023-05-24T22:13:42.996Z,11.03
2023-05-24T22:16:09.510Z,11.13
2023-05-24T22:18:35.994Z,11.02
2023-05-24T22:21:06.170Z,11.08
2023-05-24T22:23:33.306Z,10.99
2023-05-24T22:25:59.838Z,10.90
2023-05-24T22:28:26.296Z,10.89
2023-05-24T22:30:52.714Z,10.83
2023-05-24T22:33:19.971Z,10.90
2023-05-24T22:35:46.556Z,10.83
2023-05-24T22:38:13.056Z,10.86
2023-05-24T22:40:42.032Z,10.80
2023-05-24T22:43:08.616Z,10.86
2023-05-24T22:45:35.101Z,10.92
2023-05-24T22:48:03.189Z,10.76
2023-05-24T22:50:29.810Z,10.86
2023-05-24T22:52:56.655Z,10.70
2023-05-24T22:55:23.849Z,10.57
2023-05-24T22:57:50.355Z,10.53
2023-05-24T23:00:17.131Z,10.52
2023-05-24T23:02:43.594Z,10.65
2023-05-24T23:05:11.287Z,10.58
2023-05-24T23:07:38.008Z,10.50
2023-05-24T23:10:04.803Z,10.57
2023-05-24T23:12:31.351Z,10.64
2023-05-24T23:14:58.398Z,10.64
2023-05-24T23:17:25.170Z,10.75
2023-05-24T23:19:51.675Z,10.99
2023-05-24T23:22:18.486Z,10.90
2023-05-24T23:24:46.458Z,11.01
2023-05-24T23:27:12.931Z,10.68
2023-05-24T23:29:39.431Z,10.53
2023-05-24T23:32:07.363Z,10.60
2023-05-24T23:34:33.960Z,10.90
2023-05-24T23:37:04.283Z,11.09
2023-05-24T23:39:30.861Z,10.91
2023-05-24T23:41:57.313Z,10.96
2023-05-24T23:44:24.022Z,11.09
2023-05-24T23:46:51.225Z,11.02
2023-05-24T23:49:18.008Z,11.14
2023-05-24T23:51:44.498Z,11.42
2023-05-24T23:54:11.299Z,11.34
2023-05-24T23:56:40.862Z,11.17
2023-05-24T23:59:07.580Z,11.22
